sensor_id;sensor_type;location;lat;lon;timestamp;P1;durP1;ratioP1;P2;durP2;ratioP2
16450;SDS011;12243;42.708;23.310;2023-01-08T00:00:08;45.87;;;25.10;;
16450;SDS011;12243;42.708;23.310;2023-01-08T00:02:38;37.83;;;23.67;;
16450;SDS011;12243;42.708;23.310;2023-01-08T00:05:05;42.70;;;24.93;;
16450;SDS011;12243;42.708;23.310;2023-01-08T00:07:35;36.00;;;23.63;;
16450;SDS011;12243;42.708;23.310;2023-01-08T00:10:02;41.80;;;24.67;;
16450;SDS011;12243;42.708;23.310;2023-01-08T00:12:32;41.50;;;24.53;;
16450;SDS011;12243;42.708;23.310;2023-01-08T00:15:00;42.33;;;25.97;;
16450;SDS011;12243;42.708;23.310;2023-01-08T00:17:28;49.07;;;27.23;;
16450;SDS011;12243;42.708;23.310;2023-01-08T00:19:55;52.93;;;31.47;;
16450;SDS011;12243;42.708;23.310;2023-01-08T00:22:22;43.07;;;26.60;;
16450;SDS011;12243;42.708;23.310;2023-01-08T00:24:49;49.47;;;31.67;;
16450;SDS011;12243;42.708;23.310;2023-01-08T00:27:16;51.80;;;29.77;;
16450;SDS011;12243;42.708;23.310;2023-01-08T00:29:43;38.40;;;25.07;;
16450;SDS011;12243;42.708;23.310;2023-01-08T00:32:09;43.73;;;26.50;;
16450;SDS011;12243;42.708;23.310;2023-01-08T00:34:38;42.63;;;25.30;;
16450;SDS011;12243;42.708;23.310;2023-01-08T00:37:05;42.97;;;25.43;;
16450;SDS011;12243;42.708;23.310;2023-01-08T00:39:32;42.47;;;25.93;;
16450;SDS011;12243;42.708;23.310;2023-01-08T00:41:59;43.90;;;27.10;;
16450;SDS011;12243;42.708;23.310;2023-01-08T00:44:26;42.60;;;26.47;;
16450;SDS011;12243;42.708;23.310;2023-01-08T00:46:53;46.33;;;26.27;;
16450;SDS011;12243;42.708;23.310;2023-01-08T00:49:20;44.70;;;24.53;;
16450;SDS011;12243;42.708;23.310;2023-01-08T00:51:48;38.27;;;23.93;;
16450;SDS011;12243;42.708;23.310;2023-01-08T00:54:15;41.30;;;24.33;;
16450;SDS011;12243;42.708;23.310;2023-01-08T00:56:42;43.17;;;24.73;;
16450;SDS011;12243;42.708;23.310;2023-01-08T00:59:09;51.07;;;27.47;;
16450;SDS011;12243;42.708;23.310;2023-01-08T01:01:36;49.77;;;27.70;;
16450;SDS011;12243;42.708;23.310;2023-01-08T01:04:03;43.60;;;25.20;;
16450;SDS011;12243;42.708;23.310;2023-01-08T01:06:30;47.03;;;26.77;;
16450;SDS011;12243;42.708;23.310;2023-01-08T01:08:59;49.57;;;27.97;;
16450;SDS011;12243;42.708;23.310;2023-01-08T01:11:26;45.77;;;28.30;;
16450;SDS011;12243;42.708;23.310;2023-01-08T01:13:54;48.67;;;28.03;;
16450;SDS011;12243;42.708;23.310;2023-01-08T01:16:22;49.57;;;28.07;;
16450;SDS011;12243;42.708;23.310;2023-01-08T01:18:49;49.50;;;29.27;;
16450;SDS011;12243;42.708;23.310;2023-01-08T01:21:17;57.13;;;30.70;;
16450;SDS011;12243;42.708;23.310;2023-01-08T01:23:49;55.33;;;30.53;;
16450;SDS011;12243;42.708;23.310;2023-01-08T01:26:20;54.47;;;30.40;;
16450;SDS011;12243;42.708;23.310;2023-01-08T01:28:48;52.37;;;31.13;;
16450;SDS011;12243;42.708;23.310;2023-01-08T01:31:16;50.90;;;30.87;;
16450;SDS011;12243;42.708;23.310;2023-01-08T01:33:44;52.83;;;30.33;;
16450;SDS011;12243;42.708;23.310;2023-01-08T01:36:11;55.57;;;30.80;;
16450;SDS011;12243;42.708;23.310;2023-01-08T01:38:41;56.83;;;30.87;;
16450;SDS011;12243;42.708;23.310;2023-01-08T01:41:10;52.07;;;29.87;;
16450;SDS011;12243;42.708;23.310;2023-01-08T01:43:46;56.10;;;30.97;;
16450;SDS011;12243;42.708;23.310;2023-01-08T01:46:18;56.97;;;33.17;;
16450;SDS011;12243;42.708;23.310;2023-01-08T01:48:52;60.97;;;32.77;;
16450;SDS011;12243;42.708;23.310;2023-01-08T01:51:23;59.90;;;33.83;;
16450;SDS011;12243;42.708;23.310;2023-01-08T01:53:57;66.07;;;36.10;;
16450;SDS011;12243;42.708;23.310;2023-01-08T01:56:25;64.97;;;36.03;;
16450;SDS011;12243;42.708;23.310;2023-01-08T01:58:55;64.73;;;36.60;;
16450;SDS011;12243;42.708;23.310;2023-01-08T02:01:22;73.87;;;37.60;;
16450;SDS011;12243;42.708;23.310;2023-01-08T02:03:50;65.47;;;35.70;;
16450;SDS011;12243;42.708;23.310;2023-01-08T02:06:18;76.27;;;38.33;;
16450;SDS011;12243;42.708;23.310;2023-01-08T02:08:56;68.80;;;36.17;;
16450;SDS011;12243;42.708;23.310;2023-01-08T02:11:30;67.33;;;36.20;;
16450;SDS011;12243;42.708;23.310;2023-01-08T02:14:05;60.47;;;34.97;;
16450;SDS011;12243;42.708;23.310;2023-01-08T02:16:39;65.27;;;35.50;;
16450;SDS011;12243;42.708;23.310;2023-01-08T02:19:13;66.50;;;36.47;;
16450;SDS011;12243;42.708;23.310;2023-01-08T02:21:51;64.93;;;35.90;;
16450;SDS011;12243;42.708;23.310;2023-01-08T02:24:29;73.70;;;38.07;;
16450;SDS011;12243;42.708;23.310;2023-01-08T02:27:09;63.60;;;35.47;;
16450;SDS011;12243;42.708;23.310;2023-01-08T02:29:38;66.70;;;35.20;;
16450;SDS011;12243;42.708;23.310;2023-01-08T02:32:06;58.67;;;34.53;;
16450;SDS011;12243;42.708;23.310;2023-01-08T02:34:33;61.17;;;34.60;;
16450;SDS011;12243;42.708;23.310;2023-01-08T02:37:00;66.27;;;34.13;;
16450;SDS011;12243;42.708;23.310;2023-01-08T02:42:30;59.97;;;35.73;;
16450;SDS011;12243;42.708;23.310;2023-01-08T02:45:05;66.63;;;36.10;;
16450;SDS011;12243;42.708;23.310;2023-01-08T02:47:40;63.70;;;36.73;;
16450;SDS011;12243;42.708;23.310;2023-01-08T02:50:13;69.60;;;37.60;;
16450;SDS011;12243;42.708;23.310;2023-01-08T02:52:49;63.63;;;35.23;;
16450;SDS011;12243;42.708;23.310;2023-01-08T02:55:22;76.37;;;37.57;;
16450;SDS011;12243;42.708;23.310;2023-01-08T02:57:53;71.27;;;36.67;;
16450;SDS011;12243;42.708;23.310;2023-01-08T03:00:20;64.93;;;36.17;;
16450;SDS011;12243;42.708;23.310;2023-01-08T03:02:49;61.40;;;35.70;;
16450;SDS011;12243;42.708;23.310;2023-01-08T03:05:26;70.37;;;35.37;;
16450;SDS011;12243;42.708;23.310;2023-01-08T03:07:54;62.80;;;36.23;;
16450;SDS011;12243;42.708;23.310;2023-01-08T03:10:22;64.70;;;34.97;;
16450;SDS011;12243;42.708;23.310;2023-01-08T03:12:54;62.53;;;33.37;;
16450;SDS011;12243;42.708;23.310;2023-01-08T03:15:24;66.37;;;34.90;;
16450;SDS011;12243;42.708;23.310;2023-01-08T03:17:57;62.00;;;34.43;;
16450;SDS011;12243;42.708;23.310;2023-01-08T03:20:26;60.93;;;33.43;;
16450;SDS011;12243;42.708;23.310;2023-01-08T03:22:57;63.23;;;33.87;;
16450;SDS011;12243;42.708;23.310;2023-01-08T03:25:25;62.50;;;33.10;;
16450;SDS011;12243;42.708;23.310;2023-01-08T03:27:58;67.70;;;34.97;;
16450;SDS011;12243;42.708;23.310;2023-01-08T03:30:29;65.67;;;33.47;;
16450;SDS011;12243;42.708;23.310;2023-01-08T03:32:57;61.17;;;34.43;;
16450;SDS011;12243;42.708;23.310;2023-01-08T03:35:26;60.20;;;35.53;;
16450;SDS011;12243;42.708;23.310;2023-01-08T03:37:55;65.77;;;35.33;;
16450;SDS011;12243;42.708;23.310;2023-01-08T03:40:30;59.73;;;33.43;;
16450;SDS011;12243;42.708;23.310;2023-01-08T03:43:05;57.20;;;32.23;;
16450;SDS011;12243;42.708;23.310;2023-01-08T03:45:32;58.70;;;32.07;;
16450;SDS011;12243;42.708;23.310;2023-01-08T03:48:02;64.80;;;34.47;;
16450;SDS011;12243;42.708;23.310;2023-01-08T03:50:31;50.27;;;29.13;;
16450;SDS011;12243;42.708;23.310;2023-01-08T03:52:58;58.47;;;31.50;;
16450;SDS011;12243;42.708;23.310;2023-01-08T03:55:25;60.87;;;31.57;;
16450;SDS011;12243;42.708;23.310;2023-01-08T03:57:52;55.40;;;31.37;;
16450;SDS011;12243;42.708;23.310;2023-01-08T04:00:20;59.63;;;32.57;;
16450;SDS011;12243;42.708;23.310;2023-01-08T04:02:47;54.97;;;30.37;;
16450;SDS011;12243;42.708;23.310;2023-01-08T04:05:14;57.63;;;32.50;;
16450;SDS011;12243;42.708;23.310;2023-01-08T04:07:41;62.37;;;32.23;;
16450;SDS011;12243;42.708;23.310;2023-01-08T04:10:08;54.87;;;32.57;;
16450;SDS011;12243;42.708;23.310;2023-01-08T04:12:35;54.03;;;29.93;;
16450;SDS011;12243;42.708;23.310;2023-01-08T04:15:02;43.90;;;26.77;;
16450;SDS011;12243;42.708;23.310;2023-01-08T04:17:31;42.50;;;25.47;;
16450;SDS011;12243;42.708;23.310;2023-01-08T04:19:58;49.57;;;26.97;;
16450;SDS011;12243;42.708;23.310;2023-01-08T04:22:25;49.27;;;27.27;;
16450;SDS011;12243;42.708;23.310;2023-01-08T04:24:52;42.30;;;24.73;;
16450;SDS011;12243;42.708;23.310;2023-01-08T04:27:19;55.20;;;28.63;;
16450;SDS011;12243;42.708;23.310;2023-01-08T04:29:46;50.77;;;28.13;;
16450;SDS011;12243;42.708;23.310;2023-01-08T04:32:13;49.30;;;28.23;;
16450;SDS011;12243;42.708;23.310;2023-01-08T04:34:42;47.77;;;28.87;;
16450;SDS011;12243;42.708;23.310;2023-01-08T04:37:09;50.50;;;27.53;;
16450;SDS011;12243;42.708;23.310;2023-01-08T04:39:35;45.10;;;27.83;;
16450;SDS011;12243;42.708;23.310;2023-01-08T04:42:02;49.70;;;27.57;;
16450;SDS011;12243;42.708;23.310;2023-01-08T04:44:29;57.23;;;29.67;;
16450;SDS011;12243;42.708;23.310;2023-01-08T04:46:56;52.27;;;29.60;;
16450;SDS011;12243;42.708;23.310;2023-01-08T04:49:23;55.77;;;29.90;;
16450;SDS011;12243;42.708;23.310;2023-01-08T04:51:52;58.47;;;31.47;;
16450;SDS011;12243;42.708;23.310;2023-01-08T04:54:18;62.83;;;33.50;;
16450;SDS011;12243;42.708;23.310;2023-01-08T04:56:45;64.87;;;32.87;;
16450;SDS011;12243;42.708;23.310;2023-01-08T04:59:15;60.17;;;34.47;;
16450;SDS011;12243;42.708;23.310;2023-01-08T05:01:42;59.43;;;31.27;;
16450;SDS011;12243;42.708;23.310;2023-01-08T05:04:10;60.70;;;33.77;;
16450;SDS011;12243;42.708;23.310;2023-01-08T05:06:37;57.57;;;31.43;;
16450;SDS011;12243;42.708;23.310;2023-01-08T05:09:05;58.27;;;31.70;;
16450;SDS011;12243;42.708;23.310;2023-01-08T05:11:33;61.27;;;31.30;;
16450;SDS011;12243;42.708;23.310;2023-01-08T05:14:01;55.00;;;29.00;;
16450;SDS011;12243;42.708;23.310;2023-01-08T05:16:28;59.50;;;29.80;;
16450;SDS011;12243;42.708;23.310;2023-01-08T05:18:56;52.60;;;29.53;;
16450;SDS011;12243;42.708;23.310;2023-01-08T05:21:23;46.53;;;27.23;;
16450;SDS011;12243;42.708;23.310;2023-01-08T05:23:50;45.17;;;26.13;;
16450;SDS011;12243;42.708;23.310;2023-01-08T05:26:18;51.80;;;25.87;;
16450;SDS011;12243;42.708;23.310;2023-01-08T05:28:45;40.90;;;24.70;;
16450;SDS011;12243;42.708;23.310;2023-01-08T05:31:12;46.20;;;26.53;;
16450;SDS011;12243;42.708;23.310;2023-01-08T05:33:39;49.03;;;28.20;;
16450;SDS011;12243;42.708;23.310;2023-01-08T05:36:07;48.90;;;27.93;;
16450;SDS011;12243;42.708;23.310;2023-01-08T05:38:35;79.37;;;41.93;;
16450;SDS011;12243;42.708;23.310;2023-01-08T05:41:02;142.23;;;73.90;;
16450;SDS011;12243;42.708;23.310;2023-01-08T05:43:35;94.97;;;48.37;;
16450;SDS011;12243;42.708;23.310;2023-01-08T05:46:02;118.73;;;59.13;;
16450;SDS011;12243;42.708;23.310;2023-01-08T05:48:30;89.27;;;48.23;;
16450;SDS011;12243;42.708;23.310;2023-01-08T05:50:59;127.13;;;74.87;;
16450;SDS011;12243;42.708;23.310;2023-01-08T05:53:26;101.37;;;55.97;;
16450;SDS011;12243;42.708;23.310;2023-01-08T05:55:57;58.80;;;32.20;;
16450;SDS011;12243;42.708;23.310;2023-01-08T05:58:24;48.30;;;26.23;;
16450;SDS011;12243;42.708;23.310;2023-01-08T06:00:53;46.23;;;26.30;;
16450;SDS011;12243;42.708;23.310;2023-01-08T06:03:20;46.83;;;25.50;;
16450;SDS011;12243;42.708;23.310;2023-01-08T06:05:47;50.60;;;26.80;;
16450;SDS011;12243;42.708;23.310;2023-01-08T06:08:16;46.17;;;27.67;;
16450;SDS011;12243;42.708;23.310;2023-01-08T06:10:43;53.30;;;27.97;;
16450;SDS011;12243;42.708;23.310;2023-01-08T06:13:10;48.53;;;27.63;;
16450;SDS011;12243;42.708;23.310;2023-01-08T06:15:37;49.73;;;29.50;;
16450;SDS011;12243;42.708;23.310;2023-01-08T06:18:06;52.20;;;28.87;;
16450;SDS011;12243;42.708;23.310;2023-01-08T06:20:34;57.07;;;32.37;;
16450;SDS011;12243;42.708;23.310;2023-01-08T06:23:01;57.63;;;31.83;;
16450;SDS011;12243;42.708;23.310;2023-01-08T06:25:29;54.43;;;31.97;;
16450;SDS011;12243;42.708;23.310;2023-01-08T06:27:56;170.70;;;114.83;;
16450;SDS011;12243;42.708;23.310;2023-01-08T06:30:23;73.23;;;42.37;;
16450;SDS011;12243;42.708;23.310;2023-01-08T06:32:54;55.00;;;32.77;;
16450;SDS011;12243;42.708;23.310;2023-01-08T06:35:22;50.53;;;30.10;;
16450;SDS011;12243;42.708;23.310;2023-01-08T06:37:50;48.13;;;28.57;;
16450;SDS011;12243;42.708;23.310;2023-01-08T06:40:17;61.33;;;29.80;;
16450;SDS011;12243;42.708;23.310;2023-01-08T06:42:44;48.97;;;28.20;;
16450;SDS011;12243;42.708;23.310;2023-01-08T06:45:10;49.70;;;29.53;;
16450;SDS011;12243;42.708;23.310;2023-01-08T06:47:37;52.40;;;28.77;;
16450;SDS011;12243;42.708;23.310;2023-01-08T06:50:04;51.00;;;28.43;;
16450;SDS011;12243;42.708;23.310;2023-01-08T06:52:33;47.80;;;27.47;;
16450;SDS011;12243;42.708;23.310;2023-01-08T06:55:00;55.10;;;29.73;;
16450;SDS011;12243;42.708;23.310;2023-01-08T06:57:29;54.57;;;29.40;;
16450;SDS011;12243;42.708;23.310;2023-01-08T06:59:56;51.27;;;28.40;;
16450;SDS011;12243;42.708;23.310;2023-01-08T07:02:24;52.17;;;29.53;;
16450;SDS011;12243;42.708;23.310;2023-01-08T07:04:51;56.63;;;30.13;;
16450;SDS011;12243;42.708;23.310;2023-01-08T07:07:18;57.33;;;28.77;;
16450;SDS011;12243;42.708;23.310;2023-01-08T07:09:46;53.00;;;30.00;;
16450;SDS011;12243;42.708;23.310;2023-01-08T07:12:13;52.07;;;29.67;;
16450;SDS011;12243;42.708;23.310;2023-01-08T07:14:41;52.33;;;29.63;;
16450;SDS011;12243;42.708;23.310;2023-01-08T07:17:07;60.17;;;31.70;;
16450;SDS011;12243;42.708;23.310;2023-01-08T07:19:35;56.03;;;31.67;;
16450;SDS011;12243;42.708;23.310;2023-01-08T07:22:01;53.83;;;31.40;;
16450;SDS011;12243;42.708;23.310;2023-01-08T07:24:28;55.73;;;29.73;;
16450;SDS011;12243;42.708;23.310;2023-01-08T07:26:57;51.90;;;29.93;;
16450;SDS011;12243;42.708;23.310;2023-01-08T07:29:24;49.33;;;29.33;;
16450;SDS011;12243;42.708;23.310;2023-01-08T07:31:51;56.60;;;31.20;;
16450;SDS011;12243;42.708;23.310;2023-01-08T07:34:18;55.60;;;30.50;;
16450;SDS011;12243;42.708;23.310;2023-01-08T07:36:45;52.60;;;30.73;;
16450;SDS011;12243;42.708;23.310;2023-01-08T07:39:12;57.43;;;32.70;;
16450;SDS011;12243;42.708;23.310;2023-01-08T07:41:38;57.17;;;33.70;;
16450;SDS011;12243;42.708;23.310;2023-01-08T07:44:07;51.87;;;31.10;;
16450;SDS011;12243;42.708;23.310;2023-01-08T07:46:34;51.30;;;30.27;;
16450;SDS011;12243;42.708;23.310;2023-01-08T07:49:00;53.37;;;30.97;;
16450;SDS011;12243;42.708;23.310;2023-01-08T07:51:27;54.13;;;31.40;;
16450;SDS011;12243;42.708;23.310;2023-01-08T07:53:55;54.93;;;32.13;;
16450;SDS011;12243;42.708;23.310;2023-01-08T07:56:22;55.97;;;32.30;;
16450;SDS011;12243;42.708;23.310;2023-01-08T07:58:50;61.40;;;34.60;;
16450;SDS011;12243;42.708;23.310;2023-01-08T08:01:18;60.27;;;34.53;;
16450;SDS011;12243;42.708;23.310;2023-01-08T08:03:45;59.50;;;37.70;;
16450;SDS011;12243;42.708;23.310;2023-01-08T08:06:12;63.23;;;36.00;;
16450;SDS011;12243;42.708;23.310;2023-01-08T08:08:39;64.70;;;35.87;;
16450;SDS011;12243;42.708;23.310;2023-01-08T08:11:06;57.80;;;34.03;;
16450;SDS011;12243;42.708;23.310;2023-01-08T08:13:33;55.00;;;33.00;;
16450;SDS011;12243;42.708;23.310;2023-01-08T08:16:00;61.57;;;34.83;;
16450;SDS011;12243;42.708;23.310;2023-01-08T08:18:29;53.57;;;34.00;;
16450;SDS011;12243;42.708;23.310;2023-01-08T08:20:56;57.23;;;35.07;;
16450;SDS011;12243;42.708;23.310;2023-01-08T08:23:23;58.83;;;31.07;;
16450;SDS011;12243;42.708;23.310;2023-01-08T08:25:50;59.63;;;33.77;;
16450;SDS011;12243;42.708;23.310;2023-01-08T08:28:17;53.80;;;33.40;;
16450;SDS011;12243;42.708;23.310;2023-01-08T08:30:44;59.30;;;34.60;;
16450;SDS011;12243;42.708;23.310;2023-01-08T08:33:11;57.23;;;32.67;;
16450;SDS011;12243;42.708;23.310;2023-01-08T08:35:39;56.47;;;33.40;;
16450;SDS011;12243;42.708;23.310;2023-01-08T08:38:06;54.43;;;32.93;;
16450;SDS011;12243;42.708;23.310;2023-01-08T08:40:33;49.73;;;30.90;;
16450;SDS011;12243;42.708;23.310;2023-01-08T08:43:00;54.83;;;31.87;;
16450;SDS011;12243;42.708;23.310;2023-01-08T08:45:28;51.47;;;31.70;;
16450;SDS011;12243;42.708;23.310;2023-01-08T08:47:55;56.30;;;31.77;;
16450;SDS011;12243;42.708;23.310;2023-01-08T08:50:22;51.83;;;32.57;;
16450;SDS011;12243;42.708;23.310;2023-01-08T08:52:51;56.63;;;32.27;;
16450;SDS011;12243;42.708;23.310;2023-01-08T08:55:18;53.53;;;34.70;;
16450;SDS011;12243;42.708;23.310;2023-01-08T08:57:45;52.97;;;32.70;;
16450;SDS011;12243;42.708;23.310;2023-01-08T09:00:14;62.23;;;36.30;;
16450;SDS011;12243;42.708;23.310;2023-01-08T09:02:42;55.60;;;34.17;;
16450;SDS011;12243;42.708;23.310;2023-01-08T09:05:09;61.13;;;36.40;;
16450;SDS011;12243;42.708;23.310;2023-01-08T09:07:36;58.43;;;37.57;;
16450;SDS011;12243;42.708;23.310;2023-01-08T09:10:05;67.27;;;38.30;;
16450;SDS011;12243;42.708;23.310;2023-01-08T09:12:34;58.33;;;38.27;;
16450;SDS011;12243;42.708;23.310;2023-01-08T09:15:00;66.67;;;38.63;;
16450;SDS011;12243;42.708;23.310;2023-01-08T09:17:30;61.73;;;37.80;;
16450;SDS011;12243;42.708;23.310;2023-01-08T09:19:58;66.33;;;38.93;;
16450;SDS011;12243;42.708;23.310;2023-01-08T09:22:25;65.77;;;38.93;;
16450;SDS011;12243;42.708;23.310;2023-01-08T09:24:51;65.23;;;37.37;;
16450;SDS011;12243;42.708;23.310;2023-01-08T09:27:20;63.93;;;37.50;;
16450;SDS011;12243;42.708;23.310;2023-01-08T09:29:47;58.20;;;37.33;;
16450;SDS011;12243;42.708;23.310;2023-01-08T09:32:14;57.70;;;36.50;;
16450;SDS011;12243;42.708;23.310;2023-01-08T09:34:41;61.43;;;37.97;;
16450;SDS011;12243;42.708;23.310;2023-01-08T09:37:08;57.63;;;36.17;;
16450;SDS011;12243;42.708;23.310;2023-01-08T09:39:35;60.73;;;37.13;;
16450;SDS011;12243;42.708;23.310;2023-01-08T09:42:02;53.37;;;34.30;;
16450;SDS011;12243;42.708;23.310;2023-01-08T09:44:34;54.17;;;33.83;;
16450;SDS011;12243;42.708;23.310;2023-01-08T09:47:03;45.53;;;30.10;;
16450;SDS011;12243;42.708;23.310;2023-01-08T09:49:35;45.27;;;31.10;;
16450;SDS011;12243;42.708;23.310;2023-01-08T09:52:07;39.50;;;27.17;;
16450;SDS011;12243;42.708;23.310;2023-01-08T09:54:37;44.17;;;27.57;;
16450;SDS011;12243;42.708;23.310;2023-01-08T09:57:05;42.20;;;27.20;;
16450;SDS011;12243;42.708;23.310;2023-01-08T09:59:36;41.83;;;26.53;;
16450;SDS011;12243;42.708;23.310;2023-01-08T10:02:08;45.83;;;28.20;;
16450;SDS011;12243;42.708;23.310;2023-01-08T10:04:38;46.00;;;30.23;;
16450;SDS011;12243;42.708;23.310;2023-01-08T10:07:10;40.27;;;28.53;;
16450;SDS011;12243;42.708;23.310;2023-01-08T10:09:45;40.13;;;27.53;;
16450;SDS011;12243;42.708;23.310;2023-01-08T10:12:13;34.57;;;24.60;;
16450;SDS011;12243;42.708;23.310;2023-01-08T10:14:43;41.87;;;25.80;;
16450;SDS011;12243;42.708;23.310;2023-01-08T10:17:16;35.97;;;24.60;;
16450;SDS011;12243;42.708;23.310;2023-01-08T10:19:51;41.97;;;27.37;;
16450;SDS011;12243;42.708;23.310;2023-01-08T10:22:19;45.47;;;29.17;;
16450;SDS011;12243;42.708;23.310;2023-01-08T10:24:48;45.77;;;29.87;;
16450;SDS011;12243;42.708;23.310;2023-01-08T10:27:15;47.23;;;30.40;;
16450;SDS011;12243;42.708;23.310;2023-01-08T10:29:45;44.20;;;29.70;;
16450;SDS011;12243;42.708;23.310;2023-01-08T10:32:13;42.17;;;29.27;;
16450;SDS011;12243;42.708;23.310;2023-01-08T10:34:43;48.30;;;29.00;;
16450;SDS011;12243;42.708;23.310;2023-01-08T10:37:13;43.43;;;27.87;;
16450;SDS011;12243;42.708;23.310;2023-01-08T10:39:44;42.87;;;26.03;;
16450;SDS011;12243;42.708;23.310;2023-01-08T10:42:12;42.20;;;25.90;;
16450;SDS011;12243;42.708;23.310;2023-01-08T10:44:46;39.70;;;27.10;;
16450;SDS011;12243;42.708;23.310;2023-01-08T10:47:21;38.83;;;25.70;;
16450;SDS011;12243;42.708;23.310;2023-01-08T10:49:50;35.57;;;24.77;;
16450;SDS011;12243;42.708;23.310;2023-01-08T10:52:22;41.00;;;25.33;;
16450;SDS011;12243;42.708;23.310;2023-01-08T10:54:56;36.10;;;25.23;;
16450;SDS011;12243;42.708;23.310;2023-01-08T10:57:24;42.43;;;27.40;;
16450;SDS011;12243;42.708;23.310;2023-01-08T10:59:54;35.20;;;23.83;;
16450;SDS011;12243;42.708;23.310;2023-01-08T11:02:29;31.30;;;22.97;;
16450;SDS011;12243;42.708;23.310;2023-01-08T11:05:00;37.20;;;25.77;;
16450;SDS011;12243;42.708;23.310;2023-01-08T11:07:29;39.10;;;24.07;;
16450;SDS011;12243;42.708;23.310;2023-01-08T11:09:59;35.70;;;24.30;;
16450;SDS011;12243;42.708;23.310;2023-01-08T11:12:32;40.93;;;24.63;;
16450;SDS011;12243;42.708;23.310;2023-01-08T11:15:05;36.77;;;23.37;;
16450;SDS011;12243;42.708;23.310;2023-01-08T11:17:48;37.43;;;23.23;;
16450;SDS011;12243;42.708;23.310;2023-01-08T11:20:18;36.23;;;23.90;;
16450;SDS011;12243;42.708;23.310;2023-01-08T11:22:46;35.27;;;24.17;;
16450;SDS011;12243;42.708;23.310;2023-01-08T11:25:17;37.70;;;23.87;;
16450;SDS011;12243;42.708;23.310;2023-01-08T11:27:51;34.80;;;24.67;;
16450;SDS011;12243;42.708;23.310;2023-01-08T11:30:21;33.53;;;24.97;;
16450;SDS011;12243;42.708;23.310;2023-01-08T11:32:52;35.43;;;24.73;;
16450;SDS011;12243;42.708;23.310;2023-01-08T11:35:24;37.77;;;25.60;;
16450;SDS011;12243;42.708;23.310;2023-01-08T11:37:53;34.57;;;23.00;;
16450;SDS011;12243;42.708;23.310;2023-01-08T11:40:26;40.13;;;28.97;;
16450;SDS011;12243;42.708;23.310;2023-01-08T11:43:05;36.33;;;24.60;;
16450;SDS011;12243;42.708;23.310;2023-01-08T11:45:56;33.97;;;22.77;;
16450;SDS011;12243;42.708;23.310;2023-01-08T11:48:35;33.40;;;22.00;;
16450;SDS011;12243;42.708;23.310;2023-01-08T11:51:28;31.73;;;23.07;;
16450;SDS011;12243;42.708;23.310;2023-01-08T11:54:14;32.97;;;22.87;;
16450;SDS011;12243;42.708;23.310;2023-01-08T11:56:56;34.97;;;22.50;;
16450;SDS011;12243;42.708;23.310;2023-01-08T11:59:32;34.10;;;23.20;;
16450;SDS011;12243;42.708;23.310;2023-01-08T12:02:19;30.80;;;22.03;;
16450;SDS011;12243;42.708;23.310;2023-01-08T12:05:02;29.77;;;21.93;;
16450;SDS011;12243;42.708;23.310;2023-01-08T12:07:46;32.17;;;21.27;;
16450;SDS011;12243;42.708;23.310;2023-01-08T12:10:22;28.20;;;21.17;;
16450;SDS011;12243;42.708;23.310;2023-01-08T12:12:58;31.57;;;21.67;;
16450;SDS011;12243;42.708;23.310;2023-01-08T12:15:48;32.43;;;21.20;;
16450;SDS011;12243;42.708;23.310;2023-01-08T12:18:30;31.17;;;21.80;;
16450;SDS011;12243;42.708;23.310;2023-01-08T12:21:08;29.90;;;21.00;;
16450;SDS011;12243;42.708;23.310;2023-01-08T12:23:54;28.90;;;21.87;;
16450;SDS011;12243;42.708;23.310;2023-01-08T12:26:33;31.80;;;19.40;;
16450;SDS011;12243;42.708;23.310;2023-01-08T12:29:30;25.87;;;19.63;;
16450;SDS011;12243;42.708;23.310;2023-01-08T12:32:21;29.23;;;22.10;;
16450;SDS011;12243;42.708;23.310;2023-01-08T12:34:54;33.63;;;21.40;;
16450;SDS011;12243;42.708;23.310;2023-01-08T12:37:25;29.93;;;22.70;;
16450;SDS011;12243;42.708;23.310;2023-01-08T12:40:00;30.73;;;24.47;;
16450;SDS011;12243;42.708;23.310;2023-01-08T12:42:32;30.53;;;23.33;;
16450;SDS011;12243;42.708;23.310;2023-01-08T12:45:02;31.13;;;21.73;;
16450;SDS011;12243;42.708;23.310;2023-01-08T12:47:34;29.30;;;21.13;;
16450;SDS011;12243;42.708;23.310;2023-01-08T12:50:07;29.50;;;22.20;;
16450;SDS011;12243;42.708;23.310;2023-01-08T12:52:47;28.53;;;21.13;;
16450;SDS011;12243;42.708;23.310;2023-01-08T12:55:25;25.87;;;19.47;;
16450;SDS011;12243;42.708;23.310;2023-01-08T12:57:59;24.97;;;18.73;;
16450;SDS011;12243;42.708;23.310;2023-01-08T13:00:36;23.77;;;18.87;;
16450;SDS011;12243;42.708;23.310;2023-01-08T13:03:09;24.60;;;18.13;;
16450;SDS011;12243;42.708;23.310;2023-01-08T13:05:40;24.10;;;17.53;;
16450;SDS011;12243;42.708;23.310;2023-01-08T13:08:20;21.47;;;16.83;;
16450;SDS011;12243;42.708;23.310;2023-01-08T13:10:56;24.83;;;17.30;;
16450;SDS011;12243;42.708;23.310;2023-01-08T13:13:24;26.43;;;17.93;;
16450;SDS011;12243;42.708;23.310;2023-01-08T13:18:51;22.30;;;16.63;;
16450;SDS011;12243;42.708;23.310;2023-01-08T13:24:22;21.77;;;17.60;;
16450;SDS011;12243;42.708;23.310;2023-01-08T13:26:53;23.80;;;17.73;;
16450;SDS011;12243;42.708;23.310;2023-01-08T13:29:22;21.60;;;17.43;;
16450;SDS011;12243;42.708;23.310;2023-01-08T13:31:51;21.03;;;16.03;;
16450;SDS011;12243;42.708;23.310;2023-01-08T13:34:20;21.37;;;16.47;;
16450;SDS011;12243;42.708;23.310;2023-01-08T13:36:56;19.10;;;16.97;;
16450;SDS011;12243;42.708;23.310;2023-01-08T13:39:30;28.70;;;19.97;;
16450;SDS011;12243;42.708;23.310;2023-01-08T13:42:00;25.20;;;17.77;;
16450;SDS011;12243;42.708;23.310;2023-01-08T13:44:31;20.90;;;16.00;;
16450;SDS011;12243;42.708;23.310;2023-01-08T13:47:05;19.73;;;15.87;;
16450;SDS011;12243;42.708;23.310;2023-01-08T13:49:43;19.93;;;16.07;;
16450;SDS011;12243;42.708;23.310;2023-01-08T13:52:32;19.63;;;15.70;;
16450;SDS011;12243;42.708;23.310;2023-01-08T13:55:05;25.57;;;16.00;;
16450;SDS011;12243;42.708;23.310;2023-01-08T13:57:40;24.53;;;16.83;;
16450;SDS011;12243;42.708;23.310;2023-01-08T14:00:20;19.03;;;15.53;;
16450;SDS011;12243;42.708;23.310;2023-01-08T14:02:50;22.00;;;15.67;;
16450;SDS011;12243;42.708;23.310;2023-01-08T14:05:24;18.37;;;15.23;;
16450;SDS011;12243;42.708;23.310;2023-01-08T14:07:54;22.27;;;14.73;;
16450;SDS011;12243;42.708;23.310;2023-01-08T14:10:21;20.17;;;14.97;;
16450;SDS011;12243;42.708;23.310;2023-01-08T14:12:49;19.97;;;14.40;;
16450;SDS011;12243;42.708;23.310;2023-01-08T14:15:19;20.27;;;14.53;;
16450;SDS011;12243;42.708;23.310;2023-01-08T14:17:48;18.87;;;14.87;;
16450;SDS011;12243;42.708;23.310;2023-01-08T14:20:19;20.57;;;15.03;;
16450;SDS011;12243;42.708;23.310;2023-01-08T14:22:50;22.77;;;14.90;;
16450;SDS011;12243;42.708;23.310;2023-01-08T14:25:18;20.83;;;15.43;;
16450;SDS011;12243;42.708;23.310;2023-01-08T14:27:58;19.27;;;14.50;;
16450;SDS011;12243;42.708;23.310;2023-01-08T14:30:27;24.40;;;15.33;;
16450;SDS011;12243;42.708;23.310;2023-01-08T14:32:55;20.60;;;15.37;;